Time;durP1;ratioP1;P1;durP2;ratioP2;P2;SDS_P1;SDS_P2;PMS_P1;PMS_P2;Temp;Humidity;BMP_temperature;BMP_pressure;BME280_temperature;BME280_humidity;BME280_pressure;Samples;Min_cycle;Max_cycle;Signal;HPM_P1;HPM_P2
2022/02/28 00:00:52;;;;;;;6.30;5.28;;;;;;;2.49;82.53;100708.38;4956566;28;20189;-80
2022/02/28 00:03:20;;;;;;;8.15;6.03;;;;;;;2.52;81.60;100703.03;4947232;29;20969;-80
2022/02/28 00:05:46;;;;;;;8.93;6.75;;;;;;;2.57;80.85;100709.19;4952721;28;20195;-80
2022/02/28 00:08:13;;;;;;;15.68;6.25;;;;;;;2.76;80.12;100714.34;4952616;28;20320;-80
2022/02/28 00:10:40;;;;;;;9.63;6.35;;;;;;;2.96;78.39;100717.72;4958077;28;20195;-80
2022/02/28 00:13:06;;;;;;;8.23;6.75;;;;;;;2.86;78.16;100713.41;4958190;28;20186;-80
2022/02/28 00:15:34;;;;;;;8.93;5.90;;;;;;;2.97;77.58;100710.66;4963258;28;20189;-78
2022/02/28 00:18:01;;;;;;;9.52;6.57;;;;;;;2.95;77.51;100718.63;4956245;29;20220;-80
2022/02/28 00:20:27;;;;;;;8.65;6.25;;;;;;;2.94;77.36;100700.91;4957764;28;20194;-80
2022/02/28 00:22:54;;;;;;;7.05;5.38;;;;;;;3.20;75.07;100697.97;4955864;28;20210;-80
2022/02/28 00:25:21;;;;;;;8.48;5.47;;;;;;;3.13;75.25;100697.16;4956200;28;20200;-79
2022/02/28 00:27:48;;;;;;;9.13;7.03;;;;;;;3.02;76.34;100709.69;4956192;29;20568;-79
2022/02/28 00:30:14;;;;;;;7.63;5.53;;;;;;;2.75;77.55;100716.13;4955708;28;20199;-81
2022/02/28 00:32:43;;;;;;;7.43;5.65;;;;;;;2.59;79.81;100720.69;4957993;28;20281;-81
2022/02/28 00:35:10;;;;;;;8.18;5.15;;;;;;;2.56;80.14;100717.19;4958485;28;20276;-80
2022/02/28 00:37:38;;;;;;;8.98;5.65;;;;;;;2.75;79.39;100715.25;4957110;28;20332;-80
2022/02/28 00:40:06;;;;;;;7.72;5.60;;;;;;;2.72;79.24;100710.84;4955692;28;20285;-80
2022/02/28 00:42:33;;;;;;;10.02;6.65;;;;;;;2.76;79.53;100717.00;4958971;28;20214;-80
2022/02/28 00:45:00;;;;;;;6.93;5.72;;;;;;;2.59;80.38;100712.72;4958352;28;20197;-81
2022/02/28 00:47:26;;;;;;;9.25;6.35;;;;;;;2.55;80.81;100713.63;4955578;28;20271;-80
2022/02/28 00:49:54;;;;;;;9.30;5.78;;;;;;;2.57;81.08;100710.97;4957137;28;20204;-80
2022/02/28 00:52:21;;;;;;;7.95;5.45;;;;;;;2.45;81.82;100712.81;4955671;28;20202;-81
2022/02/28 00:54:48;;;;;;;9.15;5.72;;;;;;;2.30;83.78;100705.81;4955209;29;20196;-80
2022/02/28 00:57:14;;;;;;;7.90;5.47;;;;;;;2.24;84.49;100703.22;4955794;29;20200;-81
2022/02/28 00:59:41;;;;;;;6.90;5.70;;;;;;;2.07;86.38;100710.41;4955075;29;20209;-80
2022/02/28 01:02:08;;;;;;;7.65;5.70;;;;;;;2.21;85.62;100707.66;4955966;28;20210;-81
2022/02/28 01:04:34;;;;;;;11.07;7.20;;;;;;;2.18;86.36;100711.22;4955334;28;20205;-80
2022/02/28 01:07:02;;;;;;;10.02;7.18;;;;;;;2.02;87.53;100709.56;4955279;29;20206;-80
2022/02/28 01:09:29;;;;;;;8.35;7.03;;;;;;;2.14;87.07;100713.91;4955353;28;20202;-80
2022/02/28 01:11:55;;;;;;;8.52;6.25;;;;;;;2.08;87.43;100725.44;4955564;28;20690;-80
2022/02/28 01:14:22;;;;;;;7.63;6.10;;;;;;;2.07;87.46;100721.03;4958037;28;20205;-80
2022/02/28 01:16:49;;;;;;;8.18;6.03;;;;;;;2.15;86.43;100702.38;4955250;29;20258;-80
2022/02/28 01:19:15;;;;;;;9.68;6.25;;;;;;;2.26;85.79;100706.75;4955400;28;21052;-80
2022/02/28 01:21:42;;;;;;;7.85;6.10;;;;;;;2.26;85.73;100709.41;4962676;28;20209;-80
2022/02/28 01:24:10;;;;;;;8.23;5.43;;;;;;;2.18;85.59;100700.59;4955128;28;20210;-80
2022/02/28 01:26:37;;;;;;;7.53;4.95;;;;;;;2.13;86.62;100704.19;4963708;28;20189;-80
2022/02/28 01:29:04;;;;;;;9.05;6.05;;;;;;;2.14;86.72;100697.97;4955260;29;20290;-80
2022/02/28 01:31:30;;;;;;;8.27;6.47;;;;;;;2.06;87.35;100687.41;4964875;28;20235;-80
2022/02/28 01:33:57;;;;;;;8.02;5.95;;;;;;;1.90;88.85;100678.66;4960393;28;20289;-79
2022/02/28 01:36:24;;;;;;;8.38;6.25;;;;;;;1.97;89.02;100680.38;4953368;29;20191;-78
2022/02/28 01:38:50;;;;;;;6.90;5.88;;;;;;;1.88;89.19;100677.75;4954281;28;20279;-78
2022/02/28 01:41:18;;;;;;;6.43;5.82;;;;;;;1.71;90.24;100674.31;4960120;28;20200;-79
2022/02/28 01:43:45;;;;;;;9.68;6.50;;;;;;;1.66;90.43;100677.84;4955361;28;20196;-81
2022/02/28 01:46:11;;;;;;;9.40;6.60;;;;;;;1.80;89.56;100675.13;4961909;28;20705;-80
2022/02/28 01:48:38;;;;;;;8.95;6.13;;;;;;;1.80;88.99;100672.47;4954411;28;20688;-79
2022/02/28 01:51:05;;;;;;;8.48;6.00;;;;;;;1.63;89.75;100679.66;4954413;28;20194;-79
2022/02/28 01:53:32;;;;;;;9.35;5.80;;;;;;;1.66;89.41;100676.97;4953230;28;20189;-79
2022/02/28 01:55:58;;;;;;;7.13;5.22;;;;;;;1.79;88.23;100680.47;4954453;28;20199;-79
2022/02/28 01:58:34;;;;;;;10.02;6.00;;;;;;;1.85;86.20;100675.09;4954484;28;20201;-79
2022/02/28 02:01:01;;;;;;;8.55;5.75;;;;;;;1.96;84.99;100683.03;4961506;28;20280;-79
2022/02/28 02:03:27;;;;;;;7.72;5.90;;;;;;;1.98;84.81;100681.25;4965286;28;20212;-78
2022/02/28 02:05:54;;;;;;;8.05;6.82;;;;;;;1.85;85.75;100681.31;4963410;28;20226;-79
2022/02/28 02:08:21;;;;;;;8.35;6.28;;;;;;;1.72;86.52;100686.69;4963358;28;20287;-79
2022/02/28 02:10:49;;;;;;;9.48;6.15;;;;;;;1.59;87.91;100683.22;4949902;28;20199;-79
2022/02/28 02:13:16;;;;;;;8.63;6.50;;;;;;;1.43;90.05;100680.59;4956111;28;20285;-79
2022/02/28 02:15:46;;;;;;;9.27;6.20;;;;;;;1.35;91.89;100674.44;4957673;28;20288;-80
2022/02/28 02:18:13;;;;;;;11.60;7.63;;;;;;;1.41;92.29;100677.06;4961610;28;20673;-79
2022/02/28 02:20:41;;;;;;;8.52;6.88;;;;;;;1.28;93.79;100674.47;4959262;28;20208;-79
2022/02/28 02:23:10;;;;;;;8.50;6.72;;;;;;;1.13;94.52;100681.59;4962085;28;20295;-79
2022/02/28 02:25:37;;;;;;;11.45;7.15;;;;;;;1.08;95.86;100674.53;4956843;28;20236;-79
2022/02/28 02:28:07;;;;;;;8.10;6.78;;;;;;;1.04;97.17;100671.88;4951620;28;20189;-79
2022/02/28 02:30:34;;;;;;;12.23;7.32;;;;;;;1.10;97.31;100676.28;4963841;28;20339;-78
2022/02/28 02:33:01;;;;;;;9.43;6.75;;;;;;;1.10;97.58;100675.41;4972005;28;20192;-79
2022/02/28 02:35:28;;;;;;;10.77;7.60;;;;;;;1.11;96.91;100675.41;4972097;28;20188;-79
2022/02/28 02:37:56;;;;;;;8.80;6.88;;;;;;;1.36;95.90;100678.00;4972196;28;20203;-79
2022/02/28 02:40:23;;;;;;;8.95;6.03;;;;;;;1.41;95.16;100670.91;4965206;28;20639;-79
2022/02/28 02:42:50;;;;;;;10.65;6.75;;;;;;;1.60;94.15;100674.34;4972945;28;20208;-78
2022/02/28 02:45:17;;;;;;;9.05;6.63;;;;;;;1.43;95.17;100667.34;4972480;28;20200;-80
2022/02/28 02:47:43;;;;;;;11.93;6.65;;;;;;;1.54;94.61;100662.00;4972362;28;20282;-79
2022/02/28 02:50:10;;;;;;;9.75;6.57;;;;;;;1.55;94.01;100669.06;4971962;28;20215;-79
2022/02/28 02:52:37;;;;;;;10.25;6.95;;;;;;;1.59;94.24;100664.63;4972326;28;20703;-79
2022/02/28 02:55:06;;;;;;;9.45;6.50;;;;;;;1.58;93.88;100665.50;4971992;28;20215;-79
2022/02/28 02:57:33;;;;;;;9.68;5.90;;;;;;;1.36;95.03;100662.94;4972577;28;20291;-78
2022/02/28 03:00:03;;;;;;;6.75;5.70;;;;;;;1.01;98.04;100663.03;4972233;28;20202;-79
2022/02/28 03:02:32;;;;;;;7.97;5.65;;;;;;;0.90;99.17;100665.69;4971960;28;20291;-79
2022/02/28 03:04:58;;;;;;;8.98;6.15;;;;;;;0.81;99.99;100663.06;4971957;28;20196;-79
2022/02/28 03:07:25;;;;;;;7.88;6.20;;;;;;;0.72;100.00;100657.78;4972596;28;20190;-79
2022/02/28 03:09:52;;;;;;;10.52;7.00;;;;;;;0.57;100.00;100653.38;4972059;28;20192;-79
2022/02/28 03:12:20;;;;;;;7.82;5.70;;;;;;;0.56;100.00;100652.47;4972357;28;20199;-80
2022/02/28 03:14:46;;;;;;;9.02;6.03;;;;;;;0.59;100.00;100657.81;4971698;28;20184;-79
2022/02/28 03:17:13;;;;;;;9.60;7.13;;;;;;;0.53;100.00;100655.16;4972779;28;20198;-78
2022/02/28 03:19:39;;;;;;;8.73;6.60;;;;;;;0.39;100.00;100654.28;4972147;28;20204;-78
2022/02/28 03:22:06;;;;;;;10.30;7.03;;;;;;;0.37;100.00;100651.59;4972040;28;20210;-79
2022/02/28 03:24:33;;;;;;;10.75;6.53;;;;;;;0.28;100.00;100650.72;4972406;28;20275;-79
2022/02/28 03:26:59;;;;;;;10.25;7.50;;;;;;;0.36;100.00;100646.28;4972018;28;20283;-79
2022/02/28 03:29:27;;;;;;;10.55;6.82;;;;;;;0.38;100.00;100652.47;4972191;28;20222;-79
2022/02/28 03:31:54;;;;;;;9.88;6.55;;;;;;;0.48;100.00;100662.22;4958596;28;20250;-80
2022/02/28 03:34:21;;;;;;;10.25;6.95;;;;;;;0.76;100.00;100657.75;4953742;28;20643;-80
2022/02/28 03:36:47;;;;;;;8.75;6.80;;;;;;;0.95;100.00;100655.09;4953842;28;20228;-80
2022/02/28 03:39:15;;;;;;;11.52;6.47;;;;;;;0.93;100.00;100664.84;4953417;29;20193;-81
2022/02/28 03:41:41;;;;;;;9.85;6.60;;;;;;;0.91;100.00;100671.91;4957425;28;20706;-79
2022/02/28 03:44:08;;;;;;;7.95;6.05;;;;;;;0.80;100.00;100667.50;4961667;28;20238;-80
2022/02/28 03:46:36;;;;;;;9.65;5.82;;;;;;;0.80;100.00;100677.22;4956886;29;20606;-78
2022/02/28 03:49:03;;;;;;;7.30;5.90;;;;;;;0.87;100.00;100683.41;4950049;29;20718;-79
2022/02/28 03:51:30;;;;;;;15.38;7.60;;;;;;;0.99;99.87;100678.94;4957152;28;20204;-81
2022/02/28 03:53:56;;;;;;;7.85;6.47;;;;;;;1.00;99.30;100670.13;4956615;28;20276;-80
2022/02/28 03:56:23;;;;;;;11.63;7.40;;;;;;;0.87;98.43;100670.16;4958196;28;20285;-79
2022/02/28 03:58:49;;;;;;;8.10;6.78;;;;;;;0.88;99.17;100678.06;4957396;28;20271;-80
2022/02/28 04:01:16;;;;;;;13.18;7.90;;;;;;;0.85;99.78;100666.59;4962271;28;20228;-80
2022/02/28 04:03:44;;;;;;;8.48;5.95;;;;;;;0.91;99.47;100671.91;4963410;28;20212;-79
2022/02/28 04:06:11;;;;;;;8.60;6.85;;;;;;;0.92;98.69;100673.66;4960992;28;20195;-78
2022/02/28 04:08:38;;;;;;;7.22;5.95;;;;;;;0.90;97.95;100680.72;4961848;28;20295;-79
2022/02/28 04:11:04;;;;;;;10.13;7.22;;;;;;;0.75;99.54;100673.69;4956687;29;20193;-79
2022/02/28 04:13:31;;;;;;;11.30;7.53;;;;;;;0.75;99.85;100679.88;4956209;28;20229;-80
2022/02/28 04:15:58;;;;;;;9.55;6.93;;;;;;;0.69;100.00;100682.53;4972049;28;20203;-80
2022/02/28 04:18:24;;;;;;;10.27;7.28;;;;;;;0.67;100.00;100683.41;4959582;28;20279;-80
2022/02/28 04:20:52;;;;;;;8.75;6.70;;;;;;;0.61;100.00;100681.63;4956295;29;20195;-80
2022/02/28 04:23:19;;;;;;;10.00;7.57;;;;;;;0.74;100.00;100687.81;4956580;28;20576;-80
2022/02/28 04:25:45;;;;;;;12.63;7.85;;;;;;;0.85;100.00;100675.44;4956175;28;20189;-81
2022/02/28 04:28:12;;;;;;;10.88;8.18;;;;;;;0.91;100.00;100675.44;4955995;29;20197;-79
2022/02/28 04:30:39;;;;;;;10.00;7.20;;;;;;;0.74;100.00;100677.22;4955938;28;20639;-79
2022/02/28 04:33:06;;;;;;;11.57;8.10;;;;;;;0.55;100.00;100669.28;4956063;29;20191;-79
2022/02/28 04:35:32;;;;;;;11.20;8.45;;;;;;;0.30;100.00;100670.16;4956313;28;20654;-80
2022/02/28 04:38:02;;;;;;;13.13;7.88;;;;;;;0.28;100.00;100671.94;4955886;29;20193;-79
2022/02/28 04:40:28;;;;;;;10.73;7.80;;;;;;;0.16;100.00;100670.16;4955861;28;20282;-79
2022/02/28 04:42:55;;;;;;;11.65;7.53;;;;;;;0.09;100.00;100679.84;4956803;28;20208;-79
2022/02/28 04:45:22;;;;;;;11.80;7.50;;;;;;;0.14;100.00;100674.56;4963308;28;20208;-79
2022/02/28 04:47:48;;;;;;;13.93;7.65;;;;;;;-0.08;100.00;100673.63;4955394;29;20200;-79
2022/02/28 04:50:15;;;;;;;10.88;8.45;;;;;;;-0.16;100.00;100672.72;4956654;28;20191;-79
2022/02/28 04:52:42;;;;;;;14.73;9.27;;;;;;;-0.26;100.00;100672.69;4958378;28;20283;-79
2022/02/28 04:55:10;;;;;;;13.13;7.97;;;;;;;-0.23;100.00;100667.41;4954662;28;20287;-79
2022/02/28 04:57:38;;;;;;;10.63;7.45;;;;;;;-0.20;100.00;100669.19;4955307;28;20192;-80
2022/02/28 05:00:06;;;;;;;15.52;8.60;;;;;;;-0.18;100.00;100664.78;4959739;28;20200;-79
2022/02/28 05:02:32;;;;;;;10.20;7.93;;;;;;;-0.14;100.00;100668.31;4960387;28;20232;-79
2022/02/28 05:05:00;;;;;;;13.50;8.18;;;;;;;-0.12;100.00;100670.06;4955301;29;20281;-79
2022/02/28 05:07:27;;;;;;;9.95;7.70;;;;;;;-0.06;100.00;100658.63;4956331;28;20189;-79
2022/02/28 05:09:53;;;;;;;13.70;7.55;;;;;;;-0.14;100.00;100663.88;4955386;28;20223;-80
2022/02/28 05:12:21;;;;;;;13.73;8.82;;;;;;;-0.28;100.00;100658.56;4960101;28;20188;-79
2022/02/28 05:14:48;;;;;;;10.88;8.07;;;;;;;-0.37;100.00;100662.94;4958121;28;20185;-79
2022/02/28 05:17:15;;;;;;;9.98;8.10;;;;;;;-0.38;100.00;100664.72;4954526;29;20193;-79
2022/02/28 05:19:42;;;;;;;11.50;8.57;;;;;;;-0.28;100.00;100655.91;4955336;29;20196;-78
2022/02/28 05:22:09;;;;;;;15.07;7.82;;;;;;;-0.16;100.00;100660.34;4955252;28;20192;-79
2022/02/28 05:24:36;;;;;;;11.60;8.02;;;;;;;-0.02;100.00;100660.41;4954861;29;20217;-79
2022/02/28 05:27:05;;;;;;;10.95;8.40;;;;;;;0.01;100.00;100668.34;4961459;28;20187;-79
2022/02/28 05:29:32;;;;;;;14.10;8.77;;;;;;;0.01;100.00;100663.06;4955251;29;20197;-79
2022/02/28 05:31:59;;;;;;;14.82;8.00;;;;;;;0.12;100.00;100655.13;4954907;28;20316;-80
2022/02/28 05:34:26;;;;;;;13.30;7.15;;;;;;;0.15;100.00;100661.31;4957341;28;20288;-80
2022/02/28 05:36:52;;;;;;;11.20;8.40;;;;;;;0.12;100.00;100658.66;4954872;29;21055;-79
2022/02/28 05:39:19;;;;;;;10.75;7.05;;;;;;;0.20;100.00;100662.22;4954805;29;21018;-79
2022/02/28 05:41:46;;;;;;;14.13;7.25;;;;;;;0.12;100.00;100671.03;4954728;29;20229;-79
2022/02/28 05:44:12;;;;;;;14.82;7.80;;;;;;;0.11;100.00;100670.13;4953766;29;20315;-79
2022/02/28 05:46:40;;;;;;;18.98;8.23;;;;;;;0.20;100.00;100672.81;4948610;29;20537;-78
2022/02/28 05:49:07;;;;;;;10.82;8.07;;;;;;;0.21;100.00;100665.75;4954334;29;20949;-79
2022/02/28 05:51:33;;;;;;;16.38;8.40;;;;;;;0.28;100.00;100666.63;4954770;29;20203;-79
2022/02/28 05:54:00;;;;;;;11.07;7.55;;;;;;;0.31;100.00;100669.28;4954553;29;20197;-79
2022/02/28 05:56:29;;;;;;;10.60;8.48;;;;;;;0.33;100.00;100678.09;4949454;29;20243;-78
2022/02/28 05:58:56;;;;;;;12.02;7.72;;;;;;;0.31;100.00;100670.16;4954392;29;20204;-78
2022/02/28 06:01:22;;;;;;;12.93;8.70;;;;;;;0.26;100.00;100671.03;4953649;29;20979;-78
2022/02/28 06:03:50;;;;;;;11.40;7.47;;;;;;;0.35;100.00;100674.56;4954337;29;21003;-79
2022/02/28 06:06:17;;;;;;;16.67;8.65;;;;;;;0.39;100.00;100679.00;4953765;28;20655;-79
2022/02/28 06:08:44;;;;;;;11.07;7.93;;;;;;;0.50;100.00;100676.34;4953920;29;20228;-79
2022/02/28 06:11:11;;;;;;;14.82;7.15;;;;;;;0.73;100.00;100676.34;4953564;29;20283;-80
2022/02/28 06:13:37;;;;;;;13.80;7.78;;;;;;;0.71;100.00;100683.41;4954242;29;20307;-78
2022/02/28 06:16:04;;;;;;;13.65;6.60;;;;;;;0.71;100.00;100680.75;4953989;29;20209;-80
2022/02/28 06:18:31;;;;;;;10.48;6.90;;;;;;;0.75;100.00;100686.94;4954266;29;20197;-79
2022/02/28 06:20:59;;;;;;;10.88;8.35;;;;;;;0.84;100.00;100694.91;4953607;29;20288;-80
2022/02/28 06:23:26;;;;;;;13.40;7.95;;;;;;;0.67;100.00;100694.03;4953912;29;20224;-79
2022/02/28 06:25:52;;;;;;;15.98;7.95;;;;;;;0.72;100.00;100689.59;4953812;29;20256;-79
2022/02/28 06:28:20;;;;;;;15.45;7.72;;;;;;;0.65;100.00;100693.13;4953543;29;20193;-80
2022/02/28 06:30:47;;;;;;;15.55;8.80;;;;;;;0.73;100.00;100681.66;4951296;28;20236;-83
2022/02/28 06:33:14;;;;;;;16.23;9.32;;;;;;;0.81;100.00;100684.28;4953703;29;20203;-81
2022/02/28 06:35:44;;;;;;;17.15;9.43;;;;;;;0.84;100.00;100684.28;4946299;29;20320;-85
2022/02/28 06:38:12;;;;;;;15.35;8.63;;;;;;;0.99;99.03;100694.84;4954292;28;20196;-83
2022/02/28 06:40:39;;;;;;;17.45;8.85;;;;;;;1.11;98.77;100688.66;4945595;28;20189;-82
2022/02/28 06:43:05;;;;;;;15.80;8.75;;;;;;;1.17;98.00;100678.03;4950045;29;20213;-80
2022/02/28 06:45:32;;;;;;;17.08;9.30;;;;;;;1.23;98.48;100687.75;4947274;29;20292;-82
2022/02/28 06:47:59;;;;;;;14.77;8.77;;;;;;;1.24;98.02;100682.44;4947322;29;20208;-80
2022/02/28 06:50:25;;;;;;;17.40;9.25;;;;;;;1.28;97.28;100685.97;4946734;29;20193;-85
2022/02/28 06:52:52;;;;;;;12.68;8.55;;;;;;;1.20;97.29;100685.13;4946163;28;20197;-81
2022/02/28 06:55:20;;;;;;;13.93;8.80;;;;;;;1.15;98.05;100692.19;4951973;28;20276;-80
2022/02/28 06:57:47;;;;;;;16.63;9.30;;;;;;;1.48;96.12;100688.56;4944538;29;20682;-82
2022/02/28 07:00:14;;;;;;;17.17;9.40;;;;;;;1.57;94.14;100695.59;4943985;29;20185;-81
2022/02/28 07:02:41;;;;;;;16.02;8.82;;;;;;;1.74;92.51;100701.75;4955292;28;20278;-83
2022/02/28 07:05:09;;;;;;;13.25;9.45;;;;;;;1.77;91.50;100696.41;4938231;29;20205;-80
2022/02/28 07:07:38;;;;;;;14.60;8.13;;;;;;;1.91;89.67;100695.47;4944925;29;20287;-80
2022/02/28 07:10:06;;;;;;;12.18;8.48;;;;;;;1.70;89.91;100689.38;4946800;29;20243;-81
2022/02/28 07:12:35;;;;;;;22.48;8.60;;;;;;;1.70;90.13;100696.41;4941876;29;20546;-81
2022/02/28 07:15:02;;;;;;;14.85;7.60;;;;;;;1.88;88.62;100699.00;4953207;29;20201;-81
2022/02/28 07:17:29;;;;;;;13.68;8.45;;;;;;;1.65;89.25;100699.09;4953476;29;20196;-86
2022/02/28 07:19:56;;;;;;;11.23;7.50;;;;;;;1.55;89.43;100702.69;4940108;29;20316;-81
2022/02/28 07:22:23;;;;;;;11.98;7.80;;;;;;;1.45;91.78;100715.13;4945043;29;20196;-82
2022/02/28 07:24:49;;;;;;;10.98;7.45;;;;;;;1.74;90.78;100717.69;4945327;29;20223;-83
2022/02/28 07:27:16;;;;;;;11.38;8.45;;;;;;;1.77;89.35;100715.00;4947418;29;20282;-81
2022/02/28 07:29:44;;;;;;;14.85;8.52;;;;;;;2.05;87.70;100709.53;4938701;29;20204;-82
2022/02/28 07:32:11;;;;;;;15.45;9.07;;;;;;;2.04;87.53;100716.63;4968167;28;20225;-85
2022/02/28 07:34:37;;;;;;;12.48;8.73;;;;;;;2.14;86.40;100721.88;4970444;28;20623;-80
2022/02/28 07:37:04;;;;;;;10.93;8.48;;;;;;;2.18;85.86;100713.03;4971676;28;20283;-79
2022/02/28 07:39:31;;;;;;;15.65;9.27;;;;;;;1.96;87.75;100715.78;4969934;28;20193;-80
2022/02/28 07:42:00;;;;;;;16.20;9.07;;;;;;;2.19;87.13;100714.78;4971512;28;20547;-80
2022/02/28 07:44:27;;;;;;;21.05;9.70;;;;;;;2.30;84.66;100715.59;4970731;28;20240;-79
2022/02/28 07:46:55;;;;;;;14.77;8.73;;;;;;;2.27;84.98;100704.97;4971426;28;20204;-78
2022/02/28 07:49:22;;;;;;;20.23;9.65;;;;;;;2.41;83.67;100712.84;4971001;28;20259;-79
2022/02/28 07:51:49;;;;;;;17.17;9.23;;;;;;;2.27;83.40;100716.50;4967374;28;20203;-81
2022/02/28 07:54:16;;;;;;;21.10;10.90;;;;;;;2.37;83.75;100724.41;4972062;28;20224;-81
2022/02/28 07:56:42;;;;;;;14.05;9.23;;;;;;;2.39;83.05;100727.94;4971282;28;20204;-80
2022/02/28 07:59:09;;;;;;;14.48;9.13;;;;;;;2.32;82.26;100739.50;4970709;28;20549;-78
2022/02/28 08:01:35;;;;;;;12.15;9.18;;;;;;;2.31;82.54;100728.00;4970351;28;20285;-77
2022/02/28 08:04:03;;;;;;;14.90;8.10;;;;;;;2.54;80.08;100730.50;4970609;28;20251;-80
2022/02/28 08:06:30;;;;;;;14.75;9.32;;;;;;;2.63;80.68;100726.88;4970014;28;20284;-79
2022/02/28 08:08:57;;;;;;;17.17;9.55;;;;;;;2.70;79.09;100729.47;4970349;28;20598;-79
2022/02/28 08:11:23;;;;;;;14.05;8.93;;;;;;;2.61;78.68;100724.22;4971734;28;20636;-78
2022/02/28 08:13:50;;;;;;;20.58;11.23;;;;;;;2.55;80.71;100721.59;4971781;28;20181;-79
2022/02/28 08:16:17;;;;;;;11.93;8.57;;;;;;;2.51;80.27;100722.56;4971758;28;20208;-81
2022/02/28 08:18:44;;;;;;;13.07;9.48;;;;;;;2.52;80.10;100723.44;4971215;28;20227;-80
2022/02/28 08:21:14;;;;;;;10.65;7.88;;;;;;;2.55;80.48;100723.38;4965863;28;20219;-78
2022/02/28 08:23:41;;;;;;;17.00;8.80;;;;;;;2.66;79.29;100724.19;4971212;28;20303;-81
2022/02/28 08:26:08;;;;;;;12.32;8.52;;;;;;;2.78;79.10;100721.47;4971048;28;20216;-79
2022/02/28 08:28:35;;;;;;;13.10;8.93;;;;;;;2.99;77.30;100719.50;4972173;28;20204;-83
2022/02/28 08:31:02;;;;;;;13.02;8.50;;;;;;;2.98;76.48;100707.06;4970236;28;20366;-82
2022/02/28 08:33:29;;;;;;;15.73;9.75;;;;;;;3.07;76.23;100709.66;4954235;29;20199;-82
2022/02/28 08:35:56;;;;;;;13.02;9.30;;;;;;;2.99;76.26;100707.06;4954690;29;20223;-81
2022/02/28 08:38:24;;;;;;;10.80;8.85;;;;;;;3.09;76.32;100706.06;4955103;29;20220;-80
2022/02/28 08:40:51;;;;;;;12.65;9.57;;;;;;;3.24;76.41;100698.84;4955949;29;20205;-81
2022/02/28 08:43:17;;;;;;;13.70;9.32;;;;;;;3.40;75.27;100704.88;4955255;29;20592;-83
2022/02/28 08:45:44;;;;;;;17.63;9.90;;;;;;;3.65;73.77;100702.81;4953697;29;20213;-78
2022/02/28 08:48:11;;;;;;;17.50;10.70;;;;;;;3.68;72.49;100703.63;4949400;29;20204;-80
2022/02/28 08:50:38;;;;;;;14.00;9.60;;;;;;;3.84;71.14;100707.00;4955110;29;20189;-79
2022/02/28 08:53:04;;;;;;;16.50;10.52;;;;;;;3.99;69.46;100702.38;4954976;29;20196;-81
2022/02/28 08:55:33;;;;;;;16.77;12.00;;;;;;;4.15;67.54;100701.25;4953902;29;20200;-79
2022/02/28 08:57:59;;;;;;;14.20;10.48;;;;;;;4.26;66.90;100704.66;4954346;29;20278;-78
2022/02/28 09:00:27;;;;;;;14.60;10.57;;;;;;;4.35;65.97;100709.84;4953115;29;20687;-79
2022/02/28 09:02:57;;;;;;;14.60;10.57;;;;;;;4.46;64.96;100708.81;4955042;29;20645;-82
2022/02/28 09:05:24;;;;;;;18.20;10.48;;;;;;;4.63;63.64;100712.09;4954570;29;20208;-79
2022/02/28 09:07:50;;;;;;;11.57;9.43;;;;;;;4.63;63.87;100706.75;4952752;29;20234;-80
2022/02/28 09:10:18;;;;;;;13.77;10.00;;;;;;;4.79;62.31;100705.63;4954483;29;20207;-79
2022/02/28 09:12:46;;;;;;;14.45;9.23;;;;;;;4.78;61.83;100705.63;4954733;29;20197;-83
2022/02/28 09:15:12;;;;;;;12.90;9.35;;;;;;;4.75;61.87;100700.34;4954188;29;20197;-81
2022/02/28 09:17:39;;;;;;;13.10;9.52;;;;;;;4.81;61.76;100692.22;4954407;29;20722;-81
2022/02/28 09:20:07;;;;;;;13.75;9.52;;;;;;;5.11;60.78;100689.91;4954875;29;20222;-78
2022/02/28 09:22:34;;;;;;;13.70;9.10;;;;;;;5.36;60.05;100693.00;4954621;29;20225;-78
2022/02/28 09:25:01;;;;;;;13.80;9.82;;;;;;;5.36;59.19;100691.25;4949452;29;20209;-80
2022/02/28 09:27:28;;;;;;;13.98;9.85;;;;;;;5.51;58.39;100689.16;4955074;29;20709;-79
2022/02/28 09:29:56;;;;;;;12.32;9.50;;;;;;;5.60;56.26;100689.84;4954532;29;20207;-80
2022/02/28 09:32:23;;;;;;;14.52;9.40;;;;;;;5.79;55.86;100698.38;4971692;28;20239;-78
2022/02/28 09:34:51;;;;;;;18.52;9.60;;;;;;;5.79;54.40;100690.38;4973819;28;20239;-78
2022/02/28 09:37:17;;;;;;;14.63;9.75;;;;;;;5.79;54.43;100690.38;4974122;28;20283;-79
2022/02/28 09:39:44;;;;;;;15.32;9.98;;;;;;;6.03;54.71;100693.44;4973213;28;20206;-80
2022/02/28 09:42:12;;;;;;;17.17;10.40;;;;;;;6.13;54.42;100691.44;4973354;28;20661;-79
2022/02/28 09:44:39;;;;;;;13.77;9.40;;;;;;;6.21;53.58;100693.03;4973575;28;20303;-79
2022/02/28 09:47:08;;;;;;;16.10;9.50;;;;;;;6.27;52.98;100686.69;4973900;28;20654;-79
2022/02/28 09:49:35;;;;;;;11.52;8.70;;;;;;;6.37;52.23;100690.00;4967763;28;20744;-81
2022/02/28 09:52:02;;;;;;;13.30;9.27;;;;;;;6.46;52.40;100690.66;4973599;28;20290;-78
2022/02/28 09:54:28;;;;;;;12.60;9.95;;;;;;;6.55;52.01;100692.25;4973834;28;20214;-78
2022/02/28 09:56:55;;;;;;;14.55;10.25;;;;;;;6.55;50.96;100696.72;4974024;28;20603;-78
2022/02/28 09:59:22;;;;;;;11.82;8.55;;;;;;;6.66;50.65;100689.31;4973569;28;20952;-78
2022/02/28 10:01:49;;;;;;;14.68;9.38;;;;;;;6.72;50.90;100678.47;4973401;28;20206;-78
2022/02/28 10:04:17;;;;;;;11.65;8.82;;;;;;;6.67;50.55;100696.41;4973857;28;20230;-78
2022/02/28 10:06:46;;;;;;;13.25;9.43;;;;;;;6.93;50.74;100697.56;4973053;28;20275;-78
2022/02/28 10:09:18;;;;;;;12.38;8.98;;;;;;;7.09;49.70;100691.78;4973590;28;20613;-79
2022/02/28 10:11:48;;;;;;;8.80;7.90;;;;;;;7.15;48.46;100693.41;4969448;28;20228;-77
2022/02/28 10:14:15;;;;;;;14.00;9.32;;;;;;;7.15;48.82;100689.88;4973293;28;20223;-78
2022/02/28 10:16:43;;;;;;;11.20;8.60;;;;;;;7.32;48.36;100690.28;4973188;28;20196;-80
2022/02/28 10:19:13;;;;;;;12.30;9.45;;;;;;;7.03;48.59;100697.31;4973568;28;20208;-77
2022/02/28 10:21:44;;;;;;;10.65;8.75;;;;;;;7.05;48.96;100702.59;4972799;28;20189;-79
2022/02/28 10:24:12;;;;;;;14.55;9.38;;;;;;;7.41;48.21;100700.72;4973003;28;20275;-78
2022/02/28 10:26:41;;;;;;;15.52;9.25;;;;;;;7.43;47.82;100703.38;4973020;28;20188;-79
2022/02/28 10:29:09;;;;;;;13.13;8.90;;;;;;;7.47;48.17;100692.53;4973600;28;20214;-78
2022/02/28 10:31:38;;;;;;;18.70;10.00;;;;;;;7.62;48.09;100696.59;4963042;28;20228;-78
2022/02/28 10:34:16;;;;;;;10.95;8.52;;;;;;;7.76;47.94;100696.19;4953965;29;20546;-79
2022/02/28 10:37:04;;;;;;;10.48;9.20;;;;;;;7.98;47.41;100698.22;4953589;29;20240;-78
2022/02/28 10:39:33;;;;;;;12.15;8.25;;;;;;;8.20;46.47;100701.16;4953790;29;20617;-78
2022/02/28 10:42:05;;;;;;;12.40;9.18;;;;;;;8.10;46.11;100714.84;4953918;29;20227;-78
2022/02/28 10:44:32;;;;;;;13.73;8.23;;;;;;;8.22;46.04;100712.72;4953496;29;20312;-77
2022/02/28 10:47:04;;;;;;;13.95;9.18;;;;;;;8.31;45.54;100709.75;4953845;29;20344;-78
2022/02/28 10:49:33;;;;;;;10.20;8.05;;;;;;;8.46;45.46;100709.31;4953773;29;20196;-78
2022/02/28 10:52:04;;;;;;;11.27;8.25;;;;;;;8.47;45.13;100708.38;4953582;29;20240;-78
2022/02/28 10:54:32;;;;;;;11.27;8.60;;;;;;;8.42;45.31;100713.00;4952674;28;20211;-78
2022/02/28 10:57:03;;;;;;;11.77;8.02;;;;;;;8.54;44.87;100712.59;4953629;29;20199;-79
2022/02/28 10:59:32;;;;;;;8.93;7.60;;;;;;;8.87;44.51;100708.88;4953045;29;20230;-79
2022/02/28 11:01:59;;;;;;;14.10;9.40;;;;;;;8.91;44.54;100710.50;4956378;28;20229;-78
2022/02/28 11:04:34;;;;;;;10.88;8.35;;;;;;;8.73;44.46;100707.53;4952998;29;20378;-80
2022/02/28 11:07:04;;;;;;;11.43;8.88;;;;;;;9.09;43.78;100709.91;4953043;29;20205;-78
2022/02/28 11:09:34;;;;;;;13.65;9.48;;;;;;;8.96;44.00;100704.06;4953844;29;20687;-78
2022/02/28 11:12:22;;;;;;;12.52;8.90;;;;;;;8.94;44.07;100702.38;4952960;29;20201;-79
2022/02/28 11:14:50;;;;;;;11.27;8.23;;;;;;;9.16;43.54;100702.53;4960309;28;20193;-78
2022/02/28 11:17:21;;;;;;;12.70;9.38;;;;;;;9.23;43.38;100711.25;4954796;28;20296;-80
2022/02/28 11:19:48;;;;;;;9.43;7.35;;;;;;;9.07;43.01;100703.72;4952326;29;20225;-78
2022/02/28 11:22:16;;;;;;;10.05;7.70;;;;;;;8.86;43.08;100705.28;4952724;29;20187;-78
2022/02/28 11:24:44;;;;;;;15.07;9.88;;;;;;;9.01;43.79;100694.97;4952835;29;20242;-78